Time;durP1;ratioP1;P1;durP2;ratioP2;P2;SDS_P1;SDS_P2;PMS_P1;PMS_P2;Temp;Humidity;BMP_temperature;BMP_pressure;BME280_temperature;BME280_humidity;BME280_pressure;Samples;Min_cycle;Max_cycle;Signal;HPM_P1;HPM_P2
2023/08/29 00:01:00;;;;;;;10.20;2.55;;;;;;;25.81;49.27;94881.09;5080081;28;20024;-30
2023/08/29 00:03:27;;;;;;;15.85;3.03;;;;;;;25.84;49.39;94880.69;5083407;28;20070;-31
2023/08/29 00:06:00;;;;;;;13.23;3.10;;;;;;;25.73;49.58;94878.34;5084214;28;20092;-32
2023/08/29 00:08:26;;;;;;;12.43;2.33;;;;;;;25.78;49.73;94877.41;5076264;28;20013;-31
2023/08/29 00:10:56;;;;;;;8.68;2.70;;;;;;;25.76;49.76;94871.69;5086049;28;20027;-30
2023/08/29 00:13:21;;;;;;;10.77;2.03;;;;;;;25.82;49.42;94868.69;5080747;28;20028;-32
2023/08/29 00:15:46;;;;;;;10.95;2.55;;;;;;;25.69;49.64;94873.22;5077078;28;20016;-31
2023/08/29 00:18:12;;;;;;;9.65;2.35;;;;;;;25.71;49.92;94869.88;5076033;28;20035;-30
2023/08/29 00:20:37;;;;;;;13.13;2.42;;;;;;;25.83;49.42;94868.13;5088173;28;20016;-31
2023/08/29 00:23:03;;;;;;;8.18;1.80;;;;;;;25.83;49.50;94872.94;5085863;28;20115;-31
2023/08/29 00:25:28;;;;;;;9.15;1.58;;;;;;;25.92;49.73;94872.31;5082589;28;20032;-31
2023/08/29 00:27:54;;;;;;;14.50;2.50;;;;;;;25.71;49.99;94876.16;5083735;28;20031;-30
2023/08/29 00:30:19;;;;;;;8.90;2.10;;;;;;;25.63;50.67;94864.34;5077998;28;20032;-31
2023/08/29 00:32:44;;;;;;;10.20;2.33;;;;;;;26.06;49.26;94870.75;5085375;28;20054;-30
2023/08/29 00:35:10;;;;;;;9.05;1.83;;;;;;;25.82;49.90;94874.25;5087824;28;20453;-31
2023/08/29 00:37:35;;;;;;;8.50;1.77;;;;;;;25.67;50.59;94877.84;5079842;28;20052;-30
2023/08/29 00:40:01;;;;;;;6.75;1.95;;;;;;;25.66;50.41;94879.13;5085074;28;20135;-31
2023/08/29 00:42:26;;;;;;;8.65;1.60;;;;;;;25.75;50.05;94870.19;5083333;28;20024;-31
2023/08/29 00:44:52;;;;;;;7.22;1.40;;;;;;;25.75;50.14;94879.25;5085706;28;20028;-31
2023/08/29 00:47:17;;;;;;;8.32;2.10;;;;;;;25.73;50.00;94872.78;5077174;28;20028;-31
2023/08/29 00:49:43;;;;;;;7.07;1.70;;;;;;;25.80;49.62;94876.84;5083823;28;20035;-30
2023/08/29 00:52:08;;;;;;;7.07;1.67;;;;;;;25.75;49.71;94876.50;5086530;28;20021;-31
2023/08/29 00:54:34;;;;;;;12.00;2.17;;;;;;;25.64;49.63;94876.19;5087737;28;20020;-31
2023/08/29 00:56:59;;;;;;;5.68;1.50;;;;;;;25.59;49.35;94877.13;5079233;28;20090;-31
2023/08/29 00:59:25;;;;;;;8.10;1.65;;;;;;;25.87;48.91;94879.56;5082624;28;20384;-31
2023/08/29 01:01:50;;;;;;;7.82;1.85;;;;;;;25.93;48.68;94879.34;5090837;28;20388;-31
2023/08/29 01:04:16;;;;;;;6.50;1.90;;;;;;;25.83;48.90;94876.47;5076821;28;20097;-31
2023/08/29 01:06:42;;;;;;;6.50;1.55;;;;;;;25.74;48.81;94874.28;5084296;28;20051;-30
2023/08/29 01:09:07;;;;;;;7.00;1.67;;;;;;;25.70;49.29;94879.50;5083659;28;20017;-31
2023/08/29 01:11:48;;;;;;;7.07;2.25;;;;;;;25.85;48.69;94882.16;5086747;28;20016;-31
2023/08/29 01:14:30;;;;;;;11.68;1.67;;;;;;;25.93;48.30;94887.69;5086132;28;20107;-30
2023/08/29 01:17:39;;;;;;;7.50;1.83;;;;;;;25.76;48.09;94888.34;5083637;28;20123;-31
2023/08/29 01:20:07;;;;;;;7.25;1.83;;;;;;;25.73;48.22;94889.47;5089494;28;20040;-31
2023/08/29 01:22:52;;;;;;;8.13;2.15;;;;;;;25.94;47.81;94892.69;5084773;28;20525;-31
2023/08/29 01:25:20;;;;;;;7.32;1.70;;;;;;;25.65;47.95;94888.78;5083653;28;20851;-30
2023/08/29 01:27:46;;;;;;;6.22;1.70;;;;;;;25.43;48.69;94890.34;5086063;28;20027;-30
2023/08/29 01:30:12;;;;;;;6.90;1.23;;;;;;;25.47;48.36;94901.06;5086802;28;20024;-31
2023/08/29 01:32:39;;;;;;;7.40;1.83;;;;;;;25.37;48.36;94893.31;5085258;28;20381;-31
2023/08/29 01:35:06;;;;;;;5.53;1.50;;;;;;;25.47;48.07;94895.50;5082589;28;20103;-30
2023/08/29 01:37:31;;;;;;;4.10;1.02;;;;;;;25.48;47.57;94896.97;5082425;28;20020;-30
2023/08/29 01:39:56;;;;;;;5.15;0.90;;;;;;;25.30;48.39;94902.41;5078370;28;20044;-30
2023/08/29 01:42:22;;;;;;;3.72;0.82;;;;;;;25.39;47.98;94893.50;5081247;28;20020;-31
2023/08/29 01:44:47;;;;;;;3.25;0.90;;;;;;;25.50;47.54;94894.38;5083236;28;20016;-30
2023/08/29 01:47:13;;;;;;;4.30;0.93;;;;;;;25.32;47.95;94890.75;5090485;28;20012;-30
2023/08/29 01:49:39;;;;;;;3.97;0.82;;;;;;;25.22;48.48;94887.81;5083183;28;20021;-31
2023/08/29 01:52:05;;;;;;;3.60;1.05;;;;;;;25.21;48.54;94874.53;5090249;28;20028;-31
2023/08/29 01:54:30;;;;;;;4.88;0.90;;;;;;;25.37;48.20;94881.47;5083235;28;20481;-30
2023/08/29 01:56:58;;;;;;;3.80;1.13;;;;;;;25.44;48.23;94883.50;5083174;28;20157;-30
2023/08/29 01:59:25;;;;;;;4.32;1.05;;;;;;;25.53;47.97;94869.00;5075769;28;20044;-31
2023/08/29 02:01:51;;;;;;;4.93;1.05;;;;;;;25.47;48.12;94876.09;5082885;28;20024;-31
2023/08/29 02:04:16;;;;;;;5.13;0.98;;;;;;;25.47;47.69;94870.53;5082871;28;20028;-31
2023/08/29 02:06:42;;;;;;;4.88;1.00;;;;;;;25.34;48.62;94872.25;5087766;28;20020;-30
2023/08/29 02:09:07;;;;;;;3.00;0.80;;;;;;;25.60;47.68;94868.22;5077443;28;20112;-30
2023/08/29 02:11:33;;;;;;;5.20;1.17;;;;;;;25.55;47.63;94866.41;5083046;28;20016;-31
2023/08/29 02:13:58;;;;;;;2.67;1.55;;;;;;;25.65;47.47;94858.22;5082828;28;20119;-30
2023/08/29 02:16:24;;;;;;;3.55;0.80;;;;;;;25.49;48.11;94859.59;5083965;28;20127;-31
2023/08/29 02:18:51;;;;;;;4.20;1.13;;;;;;;25.73;47.51;94856.88;5085714;28;20452;-30
2023/08/29 02:21:17;;;;;;;5.85;1.20;;;;;;;25.64;47.53;94854.72;5084925;28;20046;-31
2023/08/29 02:23:42;;;;;;;3.38;0.93;;;;;;;25.48;48.08;94863.66;5077463;28;20466;-31
2023/08/29 02:26:08;;;;;;;4.30;1.10;;;;;;;25.62;47.63;94865.66;5087238;28;20082;-31
2023/08/29 02:28:37;;;;;;;3.03;0.82;;;;;;;25.45;48.37;94862.03;5083020;28;20024;-30
2023/08/29 02:31:07;;;;;;;3.95;0.98;;;;;;;25.71;47.67;94856.72;5081344;28;20032;-31
2023/08/29 02:33:36;;;;;;;6.00;1.10;;;;;;;25.48;48.14;94860.88;5081932;28;20032;-31
2023/08/29 02:36:03;;;;;;;3.95;1.10;;;;;;;25.41;48.42;94854.09;5074419;28;20052;-31
2023/08/29 02:38:28;;;;;;;2.22;0.80;;;;;;;25.67;47.72;94852.84;5073092;28;20473;-30
2023/08/29 02:40:54;;;;;;;6.15;1.40;;;;;;;25.54;47.95;94853.09;5082482;28;20028;-30
2023/08/29 02:43:19;;;;;;;7.68;1.42;;;;;;;25.62;47.85;94851.75;5082474;28;20028;-30
2023/08/29 02:45:45;;;;;;;5.32;1.20;;;;;;;25.70;47.93;94854.50;5081907;28;20165;-31
2023/08/29 02:48:10;;;;;;;9.15;1.42;;;;;;;25.55;47.72;94862.91;5085631;28;20042;-30
2023/08/29 02:50:36;;;;;;;4.25;1.15;;;;;;;25.61;47.80;94860.66;5084812;28;20073;-30
2023/08/29 02:53:02;;;;;;;2.53;0.93;;;;;;;25.52;48.49;94859.19;5083173;28;20024;-30
2023/08/29 02:55:28;;;;;;;7.68;1.50;;;;;;;25.52;48.34;94852.91;5084074;28;20546;-31
2023/08/29 02:57:53;;;;;;;3.13;1.08;;;;;;;25.52;48.47;94853.66;5084197;28;20024;-30
2023/08/29 03:00:19;;;;;;;5.03;1.23;;;;;;;25.51;48.22;94865.31;5082597;28;20032;-31
2023/08/29 03:02:44;;;;;;;7.43;2.28;;;;;;;25.41;48.34;94868.69;5081697;28;20012;-30
2023/08/29 03:05:10;;;;;;;4.90;1.17;;;;;;;25.75;47.72;94859.81;5074690;28;20065;-30
2023/08/29 03:07:35;;;;;;;8.65;2.53;;;;;;;25.72;47.69;94860.22;5088794;28;20021;-30
2023/08/29 03:10:00;;;;;;;5.03;1.30;;;;;;;25.53;48.08;94860.69;5088568;28;20031;-30
2023/08/29 03:12:26;;;;;;;6.57;1.67;;;;;;;25.57;47.90;94861.03;5082061;28;20024;-30
2023/08/29 03:14:54;;;;;;;6.65;1.50;;;;;;;25.62;47.67;94853.81;5079529;28;20418;-30
2023/08/29 03:17:21;;;;;;;7.50;2.45;;;;;;;25.48;48.45;94852.56;5075736;28;20024;-30
2023/08/29 03:19:47;;;;;;;9.60;2.00;;;;;;;25.67;47.87;94855.63;5081644;28;20047;-30
2023/08/29 03:22:13;;;;;;;8.45;1.90;;;;;;;25.54;48.33;94855.88;5081475;28;20025;-30
2023/08/29 03:24:38;;;;;;;5.40;1.50;;;;;;;25.70;48.07;94860.06;5083108;28;20385;-30
2023/08/29 03:27:04;;;;;;;4.90;1.80;;;;;;;25.62;48.21;94857.31;5079079;28;20029;-30
2023/08/29 03:29:29;;;;;;;7.72;2.08;;;;;;;25.53;48.61;94855.13;5081101;28;20457;-30
2023/08/29 03:31:55;;;;;;;6.53;1.67;;;;;;;25.44;48.48;94855.00;5081202;28;20378;-30
2023/08/29 03:34:20;;;;;;;8.38;2.15;;;;;;;25.63;48.48;94858.78;5080333;28;20533;-30
2023/08/29 03:36:46;;;;;;;8.55;2.10;;;;;;;25.48;48.79;94860.88;5075739;28;20532;-30
2023/08/29 03:39:11;;;;;;;13.25;2.00;;;;;;;25.45;48.51;94854.44;5083796;28;20040;-30
2023/08/29 03:41:38;;;;;;;6.15;2.10;;;;;;;25.17;49.13;94858.25;5083773;28;20016;-30
2023/08/29 03:44:04;;;;;;;8.55;1.90;;;;;;;25.35;48.99;94865.38;5083644;28;20028;-30
2023/08/29 03:46:29;;;;;;;7.68;1.83;;;;;;;25.25;49.26;94856.19;5078442;28;20489;-30
2023/08/29 03:48:55;;;;;;;9.35;2.08;;;;;;;25.26;49.16;94857.66;5080578;28;20099;-30
2023/08/29 03:51:20;;;;;;;9.18;1.80;;;;;;;25.35;48.89;94861.88;5085339;28;20334;-30
2023/08/29 03:53:46;;;;;;;5.00;1.50;;;;;;;25.58;48.60;94845.13;5084395;28;20028;-30
2023/08/29 03:56:11;;;;;;;6.78;1.40;;;;;;;25.50;48.76;94849.97;5082953;28;20486;-30
2023/08/29 03:58:37;;;;;;;3.75;1.42;;;;;;;25.45;48.70;94839.81;5077007;28;20023;-30
2023/08/29 04:01:03;;;;;;;4.45;1.30;;;;;;;25.43;48.62;94834.84;5080669;28;20031;-30
2023/08/29 04:03:30;;;;;;;5.00;1.02;;;;;;;25.31;48.61;94831.75;5077221;28;20024;-30
2023/08/29 04:05:56;;;;;;;3.90;0.93;;;;;;;25.36;48.44;94824.50;5084171;28;20024;-30
2023/08/29 04:08:22;;;;;;;4.03;1.10;;;;;;;25.31;48.43;94823.44;5080391;28;20354;-30
2023/08/29 04:10:48;;;;;;;5.95;1.00;;;;;;;25.52;47.95;94831.44;5080303;28;20028;-30
2023/08/29 04:13:14;;;;;;;3.75;0.80;;;;;;;25.39;48.12;94829.66;5080446;28;20024;-31
2023/08/29 04:15:39;;;;;;;2.78;0.90;;;;;;;25.42;48.16;94839.66;5071533;28;20028;-30
2023/08/29 04:18:05;;;;;;;4.13;1.25;;;;;;;25.34;48.36;94843.78;5079979;28;20024;-30
2023/08/29 04:20:31;;;;;;;3.35;1.25;;;;;;;25.29;48.28;94839.16;5075096;28;20024;-30
2023/08/29 04:22:58;;;;;;;4.53;1.10;;;;;;;25.21;48.51;94832.91;5079320;28;20028;-30
2023/08/29 04:25:26;;;;;;;6.00;1.00;;;;;;;25.20;48.44;94832.19;5079914;28;20016;-30
2023/08/29 04:27:54;;;;;;;2.55;1.00;;;;;;;25.15;48.82;94835.88;5083317;28;20051;-30
2023/08/29 04:30:20;;;;;;;4.65;1.83;;;;;;;25.37;48.38;94826.72;5076848;28;20017;-30
2023/08/29 04:32:50;;;;;;;5.40;1.23;;;;;;;25.50;48.11;94827.75;5088899;28;20035;-30
2023/08/29 04:35:16;;;;;;;4.85;1.00;;;;;;;25.50;48.18;94825.72;5078745;28;20032;-30
2023/08/29 04:37:46;;;;;;;2.97;1.27;;;;;;;25.29;48.84;94826.03;5080237;28;20052;-30
2023/08/29 04:40:12;;;;;;;3.47;1.10;;;;;;;25.33;48.69;94822.88;5079712;28;20051;-30
2023/08/29 04:42:37;;;;;;;5.68;1.20;;;;;;;25.41;48.52;94824.28;5079967;28;20107;-30
2023/08/29 04:45:07;;;;;;;3.72;0.98;;;;;;;25.41;48.83;94829.84;5080538;28;20016;-30
2023/08/29 04:47:33;;;;;;;4.93;1.35;;;;;;;25.31;49.09;94826.19;5079842;28;20070;-30
2023/08/29 04:50:01;;;;;;;3.97;1.15;;;;;;;25.51;48.68;94826.44;5080065;28;20031;-30
2023/08/29 04:52:27;;;;;;;4.63;1.08;;;;;;;25.44;48.78;94821.69;5077938;28;20077;-30
2023/08/29 04:54:53;;;;;;;4.97;1.17;;;;;;;24.98;49.75;94841.31;5075226;28;20056;-30
2023/08/29 04:57:20;;;;;;;4.13;1.20;;;;;;;25.05;49.90;94827.44;5083087;28;20551;-30
2023/08/29 04:59:45;;;;;;;4.88;0.90;;;;;;;25.42;49.18;94822.25;5076759;28;20431;-30
2023/08/29 05:02:11;;;;;;;5.20;1.10;;;;;;;25.23;49.32;94821.97;5081143;28;20103;-30
2023/08/29 05:04:37;;;;;;;5.43;1.00;;;;;;;25.46;48.75;94821.88;5079105;28;20160;-30
2023/08/29 05:07:03;;;;;;;3.10;0.90;;;;;;;25.46;49.08;94822.63;5079639;28;20024;-30
2023/08/29 05:09:29;;;;;;;4.43;1.05;;;;;;;25.52;48.83;94825.91;5082649;28;20447;-30
2023/08/29 05:11:54;;;;;;;4.88;1.33;;;;;;;25.49;48.56;94824.25;5083387;28;20028;-30
2023/08/29 05:14:20;;;;;;;4.05;1.27;;;;;;;25.45;48.87;94820.41;5080603;28;20031;-30
2023/08/29 05:16:45;;;;;;;3.92;0.80;;;;;;;25.36;48.99;94824.50;5083687;28;20103;-30
2023/08/29 05:19:11;;;;;;;2.70;1.08;;;;;;;25.36;48.70;94819.69;5086744;28;20110;-30
2023/08/29 05:21:36;;;;;;;5.53;2.42;;;;;;;25.37;48.91;94820.44;5078764;28;20453;-30
2023/08/29 05:24:03;;;;;;;4.43;1.00;;;;;;;25.33;49.03;94826.38;5089290;28;20355;-30
2023/08/29 05:26:28;;;;;;;6.28;1.02;;;;;;;25.37;49.22;94829.50;5083724;28;20032;-30
2023/08/29 05:28:54;;;;;;;2.75;0.80;;;;;;;25.53;48.42;94829.41;5090208;28;20013;-30
2023/08/29 05:31:19;;;;;;;4.03;1.00;;;;;;;25.21;49.29;94824.59;5082640;28;20206;-30
2023/08/29 05:33:45;;;;;;;4.05;1.20;;;;;;;25.34;48.84;94827.13;5083723;28;20366;-30
2023/08/29 05:36:10;;;;;;;3.25;0.90;;;;;;;25.38;48.99;94821.91;5082843;28;20027;-30
2023/08/29 05:38:35;;;;;;;3.58;0.73;;;;;;;25.49;48.79;94827.00;5075957;28;20077;-31
2023/08/29 05:41:03;;;;;;;3.53;1.17;;;;;;;25.33;49.08;94831.94;5086710;28;20127;-30
2023/08/29 05:43:28;;;;;;;4.95;0.90;;;;;;;25.30;49.00;94846.94;5086355;28;20461;-30
2023/08/29 05:45:57;;;;;;;5.60;1.20;;;;;;;25.36;49.16;94844.66;5083882;28;20039;-30
2023/08/29 05:48:23;;;;;;;3.70;1.17;;;;;;;25.37;48.97;94837.06;5080488;28;20016;-30
2023/08/29 05:50:50;;;;;;;4.18;1.23;;;;;;;24.99;50.07;94842.78;5078259;28;20028;-30
2023/08/29 05:53:16;;;;;;;5.10;1.33;;;;;;;25.16;49.66;94836.63;5083672;28;20111;-30
2023/08/29 05:55:41;;;;;;;3.97;1.40;;;;;;;25.29;49.23;94845.44;5083049;28;20100;-30
2023/08/29 05:58:07;;;;;;;4.00;1.40;;;;;;;25.38;48.73;94844.84;5082668;28;20042;-30
2023/08/29 06:00:33;;;;;;;5.57;1.40;;;;;;;25.20;49.37;94845.31;5079751;28;20020;-30
2023/08/29 06:02:58;;;;;;;5.32;1.35;;;;;;;25.01;49.54;94854.06;5085582;28;20366;-30
2023/08/29 06:05:26;;;;;;;4.63;1.20;;;;;;;25.26;49.09;94866.00;5090195;28;20024;-31
2023/08/29 06:07:52;;;;;;;2.45;0.90;;;;;;;25.16;49.46;94865.09;5081278;28;20065;-30
2023/08/29 06:10:17;;;;;;;2.20;0.90;;;;;;;25.15;49.52;94863.63;5077813;28;20028;-30
2023/08/29 06:12:43;;;;;;;2.38;0.95;;;;;;;25.35;49.23;94865.38;5081857;28;20420;-30
2023/08/29 06:15:08;;;;;;;2.30;0.80;;;;;;;25.26;49.55;94868.75;5082635;28;20058;-30
2023/08/29 06:17:34;;;;;;;5.97;0.98;;;;;;;25.34;48.96;94866.72;5082002;28;20047;-31
2023/08/29 06:19:59;;;;;;;2.35;0.95;;;;;;;25.13;49.55;94874.53;5088058;28;20028;-30
2023/08/29 06:22:25;;;;;;;3.03;1.08;;;;;;;25.09;49.52;94874.22;5075605;28;20438;-30
2023/08/29 06:24:51;;;;;;;3.78;1.10;;;;;;;25.29;49.20;94875.97;5084706;28;20384;-30
2023/08/29 06:27:16;;;;;;;3.75;1.10;;;;;;;25.21;49.24;94880.09;5085780;28;20027;-30
2023/08/29 06:29:41;;;;;;;4.78;1.08;;;;;;;25.17;49.50;94880.47;5084463;28;20038;-30
2023/08/29 06:32:07;;;;;;;3.40;1.10;;;;;;;25.27;48.96;94889.66;5085735;28;20055;-30
2023/08/29 06:34:32;;;;;;;4.90;1.13;;;;;;;25.20;49.58;94889.69;5083544;28;20535;-30
2023/08/29 06:36:58;;;;;;;5.32;1.05;;;;;;;25.33;49.11;94898.53;5077643;28;20473;-30
2023/08/29 06:39:23;;;;;;;3.78;1.30;;;;;;;25.24;49.53;94901.88;5086133;28;20067;-30
2023/08/29 06:41:49;;;;;;;4.15;1.58;;;;;;;25.19;49.26;94894.50;5083437;28;20028;-30
2023/08/29 06:44:14;;;;;;;3.25;1.20;;;;;;;25.35;48.98;94906.25;5073498;28;20070;-30
2023/08/29 06:46:40;;;;;;;4.88;1.10;;;;;;;25.21;49.19;94908.56;5082027;28;20048;-30
2023/08/29 06:49:07;;;;;;;2.85;0.90;;;;;;;25.31;49.41;94922.59;5081823;28;20020;-30
2023/08/29 06:51:33;;;;;;;5.53;1.17;;;;;;;25.26;49.26;94915.19;5081930;28;20032;-30
2023/08/29 06:53:59;;;;;;;2.20;1.02;;;;;;;25.19;50.12;94918.75;5081475;28;20023;-30
2023/08/29 06:56:24;;;;;;;1.98;0.88;;;;;;;25.27;49.61;94914.63;5073256;28;20378;-31
2023/08/29 06:58:49;;;;;;;3.00;0.70;;;;;;;25.36;49.39;94921.63;5082258;28;20075;-30
2023/08/29 07:01:15;;;;;;;3.38;0.57;;;;;;;25.37;49.70;94929.38;5081192;28;20020;-30
2023/08/29 07:03:41;;;;;;;2.20;1.00;;;;;;;25.35;50.01;94923.66;5081879;28;20079;-30
2023/08/29 07:06:06;;;;;;;1.48;0.60;;;;;;;25.27;50.42;94930.53;5081503;28;20031;-30
2023/08/29 07:08:32;;;;;;;4.55;0.60;;;;;;;25.40;49.73;94930.31;5081860;28;20039;-30
2023/08/29 07:10:58;;;;;;;1.30;0.60;;;;;;;25.40;50.31;94931.06;5080319;28;20066;-29
2023/08/29 07:13:23;;;;;;;2.35;0.55;;;;;;;25.32;49.95;94924.81;5082515;28;20031;-29
2023/08/29 07:15:49;;;;;;;2.42;0.73;;;;;;;25.41;49.81;94921.44;5078816;28;20473;-30
2023/08/29 07:18:14;;;;;;;1.50;0.60;;;;;;;25.40;50.17;94928.28;5076332;28;20025;-30
2023/08/29 07:20:40;;;;;;;1.35;0.63;;;;;;;25.39;49.79;94934.38;5083886;28;20093;-30
2023/08/29 07:23:05;;;;;;;1.65;0.60;;;;;;;25.42;50.23;94938.81;5078672;28;20413;-30
2023/08/29 07:25:39;;;;;;;2.08;0.40;;;;;;;25.37;50.40;94937.72;5088480;28;20023;-30
2023/08/29 07:28:09;;;;;;;3.28;0.70;;;;;;;25.41;50.73;94943.63;5081952;28;20035;-30
2023/08/29 07:30:38;;;;;;;2.90;0.80;;;;;;;25.46;50.22;94941.97;5081579;28;20547;-30
2023/08/29 07:33:03;;;;;;;2.85;0.73;;;;;;;25.38;50.61;94952.31;5085330;28;20035;-30
2023/08/29 07:35:29;;;;;;;4.97;1.00;;;;;;;25.32;51.00;94958.09;5083674;28;20039;-31
2023/08/29 07:37:54;;;;;;;2.20;0.75;;;;;;;25.35;51.17;94959.72;5081395;28;20020;-30
2023/08/29 07:40:20;;;;;;;3.42;0.90;;;;;;;25.17;51.63;94968.50;5071533;28;20063;-31
2023/08/29 07:42:45;;;;;;;2.80;1.33;;;;;;;25.26;51.37;94971.41;5079561;28;20077;-30
2023/08/29 07:45:11;;;;;;;2.17;0.90;;;;;;;25.34;51.53;94974.94;5077688;28;20023;-30
2023/08/29 07:47:36;;;;;;;3.80;0.88;;;;;;;25.29;51.22;94981.41;5085123;28;20023;-30
2023/08/29 07:50:02;;;;;;;4.72;1.15;;;;;;;25.34;51.40;94986.03;5082099;28;20032;-31
2023/08/29 07:52:28;;;;;;;3.65;1.25;;;;;;;25.25;51.29;94994.91;5084145;28;20028;-30
2023/08/29 07:54:53;;;;;;;3.33;1.15;;;;;;;25.17;51.61;94994.19;5075705;28;20012;-30
2023/08/29 07:57:19;;;;;;;3.63;0.80;;;;;;;25.16;51.54;94989.94;5080740;28;20021;-30
2023/08/29 07:59:44;;;;;;;2.45;0.80;;;;;;;25.20;51.17;94990.31;5080887;28;20025;-30
2023/08/29 08:02:10;;;;;;;1.85;0.80;;;;;;;25.20;51.44;94995.88;5081179;28;20039;-30
2023/08/29 08:04:36;;;;;;;2.22;0.82;;;;;;;25.27;51.14;95000.66;5073453;28;20021;-30
2023/08/29 08:07:02;;;;;;;4.35;1.15;;;;;;;25.24;51.66;95007.31;5080331;28;20119;-30
2023/08/29 08:09:28;;;;;;;1.98;0.70;;;;;;;25.21;51.89;95008.44;5080328;28;20042;-31
2023/08/29 08:11:54;;;;;;;1.30;0.70;;;;;;;25.19;52.09;95008.25;5079464;28;20020;-30
2023/08/29 08:14:19;;;;;;;2.63;0.68;;;;;;;25.01;51.87;95012.16;5074922;28;20376;-30
2023/08/29 08:16:44;;;;;;;1.85;0.55;;;;;;;25.05;52.34;95012.53;5080508;28;20012;-30
2023/08/29 08:19:10;;;;;;;1.63;0.63;;;;;;;24.93;52.14;95006.63;5080024;28;20093;-30
2023/08/29 08:21:35;;;;;;;1.50;0.57;;;;;;;24.88;52.15;95004.75;5080850;28;20032;-30
2023/08/29 08:24:01;;;;;;;1.10;0.30;;;;;;;25.18;51.72;95006.03;5072969;28;20036;-30
2023/08/29 08:26:27;;;;;;;2.67;0.50;;;;;;;25.08;52.00;95016.97;5080980;28;20027;-30
2023/08/29 08:28:54;;;;;;;2.13;0.57;;;;;;;25.00;52.01;95021.78;5076163;28;20069;-30
2023/08/29 08:31:20;;;;;;;0.85;0.50;;;;;;;24.98;52.37;95030.63;5083975;28;20097;-30
2023/08/29 08:33:46;;;;;;;2.95;0.90;;;;;;;25.17;51.80;95023.97;5074875;28;20255;-30
2023/08/29 08:36:11;;;;;;;2.22;0.70;;;;;;;25.30;51.61;95034.88;5083566;28;20513;-30
2023/08/29 08:38:37;;;;;;;1.77;0.80;;;;;;;25.11;52.27;95029.72;5074551;28;20025;-30
2023/08/29 08:41:04;;;;;;;2.10;0.70;;;;;;;25.22;51.59;95034.88;5087789;28;20017;-31
2023/08/29 08:43:31;;;;;;;2.25;0.70;;;;;;;25.01;52.36;95042.66;5080906;28;20477;-30
2023/08/29 08:45:57;;;;;;;3.35;0.90;;;;;;;24.99;52.05;95042.47;5080044;28;20033;-30
2023/08/29 08:48:24;;;;;;;3.33;1.77;;;;;;;25.10;51.85;95044.16;5080223;28;20082;-30
2023/08/29 08:50:50;;;;;;;2.00;0.90;;;;;;;25.16;51.64;95044.69;5079385;28;20031;-30
2023/08/29 08:53:20;;;;;;;1.30;0.75;;;;;;;25.18;52.02;95062.25;5083413;28;20016;-30
2023/08/29 08:55:45;;;;;;;1.38;0.75;;;;;;;25.08;52.28;95060.63;5084081;28;20028;-30
2023/08/29 08:58:11;;;;;;;1.38;0.60;;;;;;;25.31;51.79;95070.38;5084389;28;20093;-30
2023/08/29 09:00:37;;;;;;;4.50;0.75;;;;;;;25.00;52.74;95072.44;5084351;28;20028;-30
2023/08/29 09:03:02;;;;;;;1.95;0.55;;;;;;;25.24;51.96;95073.16;5084030;28;20024;-30
2023/08/29 09:05:28;;;;;;;1.67;0.60;;;;;;;25.28;52.17;95070.75;5079623;28;20024;-30
2023/08/29 09:07:53;;;;;;;3.72;0.80;;;;;;;25.16;52.49;95062.06;5087081;28;20081;-30
2023/08/29 09:10:19;;;;;;;1.95;0.75;;;;;;;25.04;52.90;95064.50;5084974;28;20024;-32
2023/08/29 09:12:50;;;;;;;0.82;0.45;;;;;;;25.16;52.59;95067.63;5083999;28;20496;-30
2023/08/29 09:15:17;;;;;;;1.33;0.60;;;;;;;25.09;52.91;95073.94;5091434;28;20067;-30
2023/08/29 09:17:46;;;;;;;1.63;0.70;;;;;;;25.20;52.76;95073.56;5083580;28;20016;-29
2023/08/29 09:20:12;;;;;;;1.02;0.60;;;;;;;25.20;52.93;95079.09;5076518;28;20035;-30
2023/08/29 09:22:40;;;;;;;4.53;0.70;;;;;;;25.33;52.60;95076.13;5082927;28;20020;-30
2023/08/29 09:25:06;;;;;;;1.67;0.50;;;;;;;25.32;52.50;95068.34;5083601;28;20028;-30
2023/08/29 09:27:39;;;;;;;3.97;0.73;;;;;;;25.34;52.39;95074.84;5083959;28;20369;-30
2023/08/29 09:30:07;;;;;;;;;;;;;;;25.31;52.63;95066.88;5082430;28;20510;-30
2023/08/29 09:32:33;;;;;;;1.60;0.50;;;;;;;25.33;52.57;95069.84;5083401;28;20365;-31
2023/08/29 09:34:58;;;;;;;1.10;0.40;;;;;;;25.33;52.68;95056.69;5083655;28;20017;-30
2023/08/29 09:37:24;;;;;;;1.85;0.50;;;;;;;25.40;52.42;95058.72;5083073;28;20111;-30
2023/08/29 09:39:53;;;;;;;1.23;0.45;;;;;;;25.36;52.47;95066.66;5084640;28;20523;-30
2023/08/29 09:42:21;;;;;;;1.80;0.60;;;;;;;25.35;52.96;95067.22;5081466;28;20520;-30
2023/08/29 09:44:48;;;;;;;1.80;0.60;;;;;;;25.59;52.07;95063.84;5083005;28;20028;-30
2023/08/29 09:47:22;;;;;;;3.88;0.70;;;;;;;25.41;52.80;95060.19;5079491;28;20031;-30
2023/08/29 09:49:48;;;;;;;3.28;0.50;;;;;;;25.39;53.22;95062.03;5086097;28;20013;-30
2023/08/29 09:52:15;;;;;;;3.20;0.75;;;;;;;25.52;52.96;95061.09;5079169;28;20016;-29
2023/08/29 09:54:47;;;;;;;3.40;0.80;;;;;;;25.66;52.88;95067.94;5086072;28;20020;-31
2023/08/29 09:57:15;;;;;;;2.97;0.60;;;;;;;25.62;52.85;95070.34;5083104;28;20035;-30
2023/08/29 09:59:43;;;;;;;1.55;0.60;;;;;;;25.59;53.77;95063.13;5075401;28;20017;-30
2023/08/29 10:02:13;;;;;;;2.28;0.77;;;;;;;25.65;54.34;95072.00;5083268;28;20024;-30
2023/08/29 10:04:48;;;;;;;2.83;0.55;;;;;;;25.55;54.58;95076.63;5085675;28;20031;-30
2023/08/29 10:07:23;;;;;;;7.07;1.40;;;;;;;25.65;54.10;95074.78;5084037;28;20069;-31
2023/08/29 10:09:51;;;;;;;3.25;0.55;;;;;;;25.62;53.49;95070.34;5088552;28;20051;-30
2023/08/29 10:12:17;;;;;;;3.20;0.55;;;;;;;25.52;53.66;95061.09;5084182;28;20030;-30
2023/08/29 10:14:44;;;;;;;2.58;0.80;;;;;;;25.75;51.76;95065.31;5086726;28;20016;-30
2023/08/29 10:17:10;;;;;;;2.15;0.70;;;;;;;25.49;52.18;95059.44;5085751;28;20028;-30
2023/08/29 10:19:36;;;;;;;2.22;0.50;;;;;;;25.62;51.90;95067.56;5082547;28;20082;-30
2023/08/29 10:22:04;;;;;;;2.17;0.90;;;;;;;25.67;51.62;95072.19;5081038;28;20035;-30
2023/08/29 10:24:31;;;;;;;2.25;0.68;;;;;;;25.79;51.28;95076.03;5084211;28;20109;-30
2023/08/29 10:26:57;;;;;;;2.13;0.60;;;;;;;25.72;51.20;95077.53;5082523;28;20028;-30
2023/08/29 10:29:23;;;;;;;3.55;1.13;;;;;;;25.76;51.31;95082.72;5082448;28;20020;-30
2023/08/29 10:31:48;;;;;;;2.28;0.50;;;;;;;25.66;51.60;95084.59;5084283;28;20020;-30
2023/08/29 10:34:14;;;;;;;3.30;0.68;;;;;;;25.75;51.55;95092.34;5080110;28;20382;-30
2023/08/29 10:36:40;;;;;;;2.70;0.70;;;;;;;25.91;51.44;95093.78;5082457;28;20520;-30
2023/08/29 10:39:09;;;;;;;3.83;0.70;;;;;;;25.66;51.78;95090.16;5078113;28;20066;-30
2023/08/29 10:41:47;;;;;;;3.08;0.63;;;;;;;25.62;51.84;95081.44;5077744;28;20021;-30
2023/08/29 10:44:31;;;;;;;4.30;0.60;;;;;;;25.75;52.29;95084.75;5078818;28;20035;-30
2023/08/29 10:47:26;;;;;;;3.08;0.93;;;;;;;25.81;52.26;95084.56;5090036;28;20373;-30
2023/08/29 10:50:00;;;;;;;2.47;0.90;;;;;;;25.85;52.20;95087.69;5082328;28;20028;-30
2023/08/29 10:52:41;;;;;;;2.75;0.70;;;;;;;25.80;52.04;95087.91;5081943;28;20016;-31
2023/08/29 10:55:22;;;;;;;2.83;0.55;;;;;;;25.95;51.51;95085.06;5082148;28;20035;-30
2023/08/29 10:57:49;;;;;;;5.25;0.80;;;;;;;25.86;51.99;95085.63;5081779;28;20529;-31
2023/08/29 11:00:20;;;;;;;1.75;0.52;;;;;;;25.48;52.82;95083.66;5083497;28;20067;-30
2023/08/29 11:02:47;;;;;;;2.22;0.90;;;;;;;25.92;51.50;95081.38;5085278;28;20026;-30
2023/08/29 11:05:14;;;;;;;3.70;0.65;;;;;;;25.80;52.01;95071.22;5076508;28;20037;-30
2023/08/29 11:07:40;;;;;;;1.65;0.52;;;;;;;25.91;51.74;95081.94;5083877;28;20490;-30
2023/08/29 11:10:15;;;;;;;1.45;0.52;;;;;;;25.75;52.15;95081.22;5077028;28;20099;-30
2023/08/29 11:13:07;;;;;;;1.75;0.60;;;;;;;25.74;52.64;95074.19;5081036;28;20081;-30
2023/08/29 11:15:51;;;;;;;3.15;0.88;;;;;;;25.68;53.18;95073.69;5081339;28;20055;-30
2023/08/29 11:18:31;;;;;;;1.80;0.63;;;;;;;25.72;52.86;95068.47;5080931;28;20055;-30
2023/08/29 11:20:57;;;;;;;2.45;0.60;;;;;;;25.79;51.66;95073.28;5078659;28;20027;-31
2023/08/29 11:23:23;;;;;;;1.40;0.60;;;;;;;25.70;50.59;95079.41;5083821;28;20035;-31
2023/08/29 11:25:52;;;;;;;2.00;0.60;;;;;;;25.67;50.86;95083.31;5074006;28;20021;-30
2023/08/29 11:28:18;;;;;;;1.75;0.50;;;;;;;25.70;50.59;95077.38;5088214;28;20491;-30
2023/08/29 11:30:45;;;;;;;2.55;0.43;;;;;;;25.86;50.39;95080.81;5081499;28;20107;-30
2023/08/29 11:33:14;;;;;;;1.90;0.40;;;;;;;25.81;49.38;95083.81;5086421;28;20428;-30